createdAt,value
2022-08-27T00:01:38.295Z,15.20
2022-08-27T00:04:05.596Z,13.48
2022-08-27T00:06:32.902Z,16.05
2022-08-27T00:09:00.020Z,13.45
2022-08-27T00:11:27.012Z,15.05
2022-08-27T00:13:54.317Z,16.42
2022-08-27T00:16:21.629Z,11.70
2022-08-27T00:18:49.290Z,14.90
2022-08-27T00:21:17.928Z,12.55
2022-08-27T00:23:45.191Z,12.23
2022-08-27T00:26:12.917Z,16.05
2022-08-27T00:28:41.215Z,14.98
2022-08-27T00:31:11.315Z,16.48
2022-08-27T00:33:39.611Z,14.52
2022-08-27T00:36:06.941Z,13.00
2022-08-27T00:38:34.740Z,15.75
2022-08-27T00:41:01.727Z,14.57
2022-08-27T00:43:51.434Z,16.00
2022-08-27T00:46:29.387Z,15.52
2022-08-27T00:49:01.927Z,13.25
2022-08-27T00:51:30.564Z,13.95
2022-08-27T00:53:59.223Z,13.48
2022-08-27T00:56:32.524Z,18.45
2022-08-27T00:59:01.975Z,14.93
2022-08-27T01:01:33.111Z,14.65
2022-08-27T01:04:06.048Z,17.35
2022-08-27T01:06:37.208Z,14.13
2022-08-27T01:09:14.036Z,13.82
2022-08-27T01:11:41.144Z,18.25
2022-08-27T01:14:08.213Z,16.65
2022-08-27T01:16:40.176Z,12.95
2022-08-27T01:19:17.794Z,13.35
2022-08-27T01:21:58.800Z,14.43
2022-08-27T01:24:33.517Z,14.63
2022-08-27T01:27:02.672Z,15.35
2022-08-27T01:29:31.561Z,13.50
2022-08-27T01:32:10.819Z,14.27
2022-08-27T01:34:38.548Z,14.70
2022-08-27T01:37:06.734Z,15.57
2022-08-27T01:39:36.232Z,14.15
2022-08-27T01:42:24.864Z,17.92
2022-08-27T01:44:57.349Z,18.70
2022-08-27T01:47:30.314Z,19.27
2022-08-27T01:50:00.447Z,16.65
2022-08-27T01:52:30.537Z,15.48
2022-08-27T01:54:57.947Z,19.55
2022-08-27T01:57:26.218Z,13.48
2022-08-27T01:59:57.043Z,12.52
2022-08-27T02:02:24.660Z,13.75
2022-08-27T02:04:52.176Z,15.43
2022-08-27T02:07:19.249Z,14.48
2022-08-27T02:09:46.337Z,14.23
2022-08-27T02:12:13.674Z,17.95
2022-08-27T02:14:40.795Z,14.68
2022-08-27T02:17:07.814Z,14.40
2022-08-27T02:19:35.150Z,16.23
2022-08-27T02:22:02.287Z,12.88
2022-08-27T02:24:29.284Z,20.70
2022-08-27T02:26:57.240Z,13.30
2022-08-27T02:29:25.433Z,14.25
2022-08-27T02:31:52.561Z,15.40
2022-08-27T02:34:19.521Z,16.95
2022-08-27T02:36:47.701Z,18.10
2022-08-27T02:39:14.843Z,16.67
2022-08-27T02:41:41.897Z,21.60
2022-08-27T02:44:10.505Z,16.02
2022-08-27T02:46:41.921Z,13.35
2022-08-27T02:49:09.837Z,16.35
2022-08-27T02:51:37.574Z,14.77
2022-08-27T02:54:09.449Z,14.90
2022-08-27T02:56:37.658Z,15.15
2022-08-27T02:59:05.199Z,17.77
2022-08-27T03:01:32.339Z,18.65
2022-08-27T03:03:59.397Z,16.90
2022-08-27T03:06:26.349Z,13.60
2022-08-27T03:08:53.738Z,17.95
2022-08-27T03:11:25.331Z,15.88
2022-08-27T03:13:52.828Z,19.88
2022-08-27T03:16:20.240Z,19.38
2022-08-27T03:18:47.479Z,16.80
2022-08-27T03:21:26.647Z,18.85
2022-08-27T03:23:54.140Z,13.50
2022-08-27T03:26:21.573Z,16.60
2022-08-27T03:28:48.814Z,19.50
2022-08-27T03:31:27.239Z,15.93
2022-08-27T03:34:03.842Z,15.68
2022-08-27T03:36:31.515Z,16.02
2022-08-27T03:38:58.744Z,18.05
2022-08-27T03:41:45.507Z,17.30
2022-08-27T03:44:18.470Z,18.15
2022-08-27T03:46:48.999Z,17.67
2022-08-27T03:49:17.630Z,17.23
2022-08-27T03:51:48.528Z,22.63
2022-08-27T03:54:15.842Z,17.35
2022-08-27T03:56:43.320Z,19.27
2022-08-27T03:59:10.303Z,13.25
2022-08-27T04:01:37.403Z,17.83
2022-08-27T04:04:04.910Z,14.65
2022-08-27T04:06:34.939Z,16.85
2022-08-27T04:09:03.583Z,16.58
2022-08-27T04:11:30.634Z,17.83
2022-08-27T04:13:57.634Z,18.95
2022-08-27T04:16:25.876Z,17.40
2022-08-27T04:18:55.452Z,18.27
2022-08-27T04:21:23.282Z,16.42
2022-08-27T04:23:50.980Z,17.50
2022-08-27T04:26:20.344Z,17.13
2022-08-27T04:28:48.721Z,18.70
2022-08-27T04:31:18.217Z,17.23
2022-08-27T04:33:51.040Z,17.67
2022-08-27T04:36:19.689Z,19.27
2022-08-27T04:38:46.995Z,18.38
2022-08-27T04:41:19.980Z,20.00
2022-08-27T04:43:54.797Z,18.02
2022-08-27T04:46:29.225Z,17.83
2022-08-27T04:48:59.465Z,18.85
2022-08-27T04:51:27.544Z,20.17
2022-08-27T04:53:56.364Z,18.23
2022-08-27T04:56:26.867Z,15.27
2022-08-27T04:58:54.016Z,25.25
2022-08-27T05:01:29.824Z,19.90
2022-08-27T05:03:58.732Z,29.90
2022-08-27T05:06:26.526Z,21.00
2022-08-27T05:08:54.501Z,21.65
2022-08-27T05:11:23.537Z,23.83
2022-08-27T05:13:51.045Z,17.38
2022-08-27T05:16:23.449Z,21.98
2022-08-27T05:18:52.889Z,22.45
2022-08-27T05:21:24.487Z,22.00
2022-08-27T05:23:54.327Z,25.13
2022-08-27T05:26:21.873Z,20.10
2022-08-27T05:28:48.946Z,22.73
2022-08-27T05:31:17.536Z,16.25
2022-08-27T05:33:45.384Z,18.40
2022-08-27T05:36:20.614Z,24.25
2022-08-27T05:38:51.559Z,20.35
2022-08-27T05:41:25.095Z,18.20
2022-08-27T05:44:01.348Z,18.67
2022-08-27T05:46:29.310Z,17.95
2022-08-27T05:48:58.895Z,14.80
2022-08-27T05:51:33.077Z,16.85
2022-08-27T05:54:14.815Z,19.30
2022-08-27T05:56:43.029Z,19.30
2022-08-27T05:59:28.383Z,18.30
2022-08-27T06:01:57.109Z,13.55
2022-08-27T06:04:25.528Z,15.70
2022-08-27T06:06:53.026Z,16.67
2022-08-27T06:09:24.525Z,15.32
2022-08-27T06:11:54.537Z,20.25
2022-08-27T06:14:22.100Z,17.27
2022-08-27T06:16:49.257Z,16.20
2022-08-27T06:19:16.970Z,17.13
2022-08-27T06:21:44.201Z,20.90
2022-08-27T06:24:13.018Z,15.60
2022-08-27T06:26:43.715Z,20.10
2022-08-27T06:29:12.997Z,22.30
2022-08-27T06:31:40.823Z,16.38
2022-08-27T06:34:10.259Z,15.50
2022-08-27T06:36:41.337Z,15.35
2022-08-27T06:39:13.737Z,17.15
2022-08-27T06:41:42.817Z,18.25
2022-08-27T06:44:13.558Z,18.63
2022-08-27T06:46:41.786Z,17.05
2022-08-27T06:49:10.119Z,17.38
2022-08-27T06:51:39.166Z,16.10
2022-08-27T06:54:09.980Z,12.82
2022-08-27T06:56:37.762Z,17.90
2022-08-27T06:59:11.508Z,12.73
2022-08-27T07:01:43.170Z,17.45
2022-08-27T07:04:14.385Z,17.35
2022-08-27T07:06:41.943Z,19.02
2022-08-27T07:09:10.196Z,18.27
2022-08-27T07:11:38.443Z,17.00
2022-08-27T07:14:06.382Z,15.30
2022-08-27T07:16:34.123Z,15.45
2022-08-27T07:19:04.211Z,17.10
2022-08-27T07:21:33.667Z,18.48
2022-08-27T07:24:07.832Z,18.77
2022-08-27T07:26:37.786Z,15.25
2022-08-27T07:29:08.661Z,15.98
2022-08-27T07:31:36.217Z,20.52
2022-08-27T07:34:05.300Z,16.00
2022-08-27T07:36:36.239Z,17.67
2022-08-27T07:39:03.852Z,14.88
2022-08-27T07:41:32.408Z,13.20
2022-08-27T07:44:19.392Z,15.23
2022-08-27T07:46:48.788Z,15.90
2022-08-27T07:49:20.510Z,15.93
2022-08-27T07:51:47.588Z,18.13
2022-08-27T07:54:15.372Z,15.88
2022-08-27T07:56:54.590Z,18.33
2022-08-27T07:59:24.856Z,21.33
2022-08-27T08:01:52.461Z,17.77
2022-08-27T08:04:20.611Z,13.77
2022-08-27T08:06:48.840Z,15.55
2022-08-27T08:09:15.865Z,20.00
2022-08-27T08:11:42.830Z,18.63
2022-08-27T08:14:09.807Z,15.65
2022-08-27T08:16:36.865Z,14.65
2022-08-27T08:19:03.975Z,13.50
2022-08-27T08:21:30.992Z,15.52
2022-08-27T08:23:58.784Z,18.73
2022-08-27T08:26:25.776Z,15.68
2022-08-27T08:28:52.741Z,13.40
2022-08-27T08:31:20.116Z,18.35
2022-08-27T08:33:50.143Z,17.88
2022-08-27T08:36:17.870Z,11.48
2022-08-27T08:38:46.260Z,12.80
2022-08-27T08:41:43.034Z,18.77
2022-08-27T08:44:25.056Z,14.27
2022-08-27T08:47:32.177Z,15.75
2022-08-27T08:50:15.783Z,17.10
2022-08-27T08:52:51.161Z,13.50
2022-08-27T08:55:47.362Z,15.43
2022-08-27T08:58:41.730Z,15.82
2022-08-27T09:01:10.373Z,13.93
2022-08-27T09:03:42.088Z,18.48
2022-08-27T09:06:20.254Z,14.93
2022-08-27T09:08:47.965Z,18.10
2022-08-27T09:11:40.926Z,16.50
2022-08-27T09:14:32.949Z,17.52
2022-08-27T09:17:02.023Z,15.00
2022-08-27T09:19:29.439Z,15.98
2022-08-27T09:22:15.978Z,18.90
2022-08-27T09:25:02.684Z,15.77
2022-08-27T09:27:31.354Z,18.42
2022-08-27T09:29:58.364Z,16.45
2022-08-27T09:32:31.541Z,15.35
2022-08-27T09:35:03.256Z,20.13
2022-08-27T09:37:34.689Z,16.75
2022-08-27T09:40:23.010Z,13.98
2022-08-27T09:43:07.745Z,19.52
2022-08-27T09:45:35.595Z,20.20
2022-08-27T09:48:08.088Z,18.50
2022-08-27T09:50:48.530Z,17.70
2022-08-27T09:53:48.283Z,19.45
2022-08-27T09:56:40.383Z,19.77
2022-08-27T09:59:37.543Z,20.15
2022-08-27T10:02:17.288Z,18.05
2022-08-27T10:04:58.801Z,16.77
2022-08-27T10:07:38.390Z,19.52
2022-08-27T10:10:21.622Z,18.02
2022-08-27T10:13:10.226Z,22.90
2022-08-27T10:16:07.421Z,21.05
2022-08-27T10:19:00.149Z,17.95
2022-08-27T10:21:36.968Z,19.48
2022-08-27T10:24:31.345Z,20.80
2022-08-27T10:27:20.437Z,21.85
2022-08-27T10:30:11.094Z,64.97
2022-08-27T10:33:03.850Z,21.00
2022-08-27T10:35:47.824Z,22.83
2022-08-27T10:38:44.572Z,21.27
2022-08-27T10:41:17.808Z,19.73
2022-08-27T10:44:09.499Z,20.90
2022-08-27T10:47:10.779Z,20.20
2022-08-27T10:49:51.029Z,16.63
2022-08-27T10:52:45.274Z,19.20
2022-08-27T10:55:26.966Z,21.35
2022-08-27T10:58:25.299Z,18.42
2022-08-27T11:01:03.185Z,19.20
2022-08-27T11:03:50.953Z,20.17
2022-08-27T11:06:32.585Z,18.67
2022-08-27T11:09:07.669Z,17.67
2022-08-27T11:15:14.044Z,19.45
2022-08-27T11:18:15.342Z,16.25
2022-08-27T11:20:59.864Z,17.92
2022-08-27T11:23:50.150Z,19.83
2022-08-27T11:26:17.326Z,21.70
2022-08-27T11:29:00.420Z,19.88
2022-08-27T11:31:43.681Z,18.70
2022-08-27T11:34:20.917Z,18.25
2022-08-27T11:37:34.864Z,18.50
2022-08-27T11:40:30.771Z,18.10
2022-08-27T11:43:16.262Z,17.83
2022-08-27T11:46:04.163Z,15.90
2022-08-27T11:48:42.524Z,18.38
2022-08-27T11:51:37.087Z,17.17
2022-08-27T11:54:11.475Z,21.13
2022-08-27T11:56:43.620Z,15.02
2022-08-27T11:59:29.614Z,19.13
2022-08-27T12:02:10.525Z,15.48
2022-08-27T12:04:41.872Z,18.73
2022-08-27T12:07:15.169Z,20.17
2022-08-27T12:10:00.163Z,18.55
2022-08-27T12:13:02.777Z,16.30
2022-08-27T12:16:16.449Z,18.70
2022-08-27T12:19:30.066Z,19.50
2022-08-27T12:22:28.115Z,17.40
2022-08-27T12:24:58.238Z,20.80
2022-08-27T12:27:34.861Z,26.73
2022-08-27T12:30:29.512Z,19.92
2022-08-27T12:32:58.518Z,16.33
2022-08-27T12:35:51.383Z,20.13
2022-08-27T12:38:51.076Z,18.55
2022-08-27T12:41:44.725Z,21.50
2022-08-27T12:44:16.703Z,19.83
2022-08-27T12:46:52.040Z,20.15
2022-08-27T12:49:39.268Z,18.70
2022-08-27T12:52:46.765Z,23.80
2022-08-27T12:55:49.686Z,19.90
2022-08-27T12:58:44.545Z,18.92
2022-08-27T13:01:32.624Z,17.20
2022-08-27T13:04:01.204Z,18.17
2022-08-27T13:06:31.100Z,15.95
2022-08-27T13:09:02.002Z,14.73
2022-08-27T13:11:34.128Z,17.67
2022-08-27T13:14:12.350Z,20.52
2022-08-27T13:17:03.573Z,20.98
2022-08-27T13:19:35.048Z,18.52
2022-08-27T13:22:06.074Z,16.25
2022-08-27T13:24:46.454Z,20.42
2022-08-27T13:27:13.888Z,19.38
2022-08-27T13:29:42.827Z,17.60
2022-08-27T13:32:11.904Z,14.75
2022-08-27T13:34:41.100Z,18.48
2022-08-27T13:37:33.705Z,21.75
2022-08-27T13:40:01.100Z,20.45
2022-08-27T13:42:28.444Z,22.77
2022-08-27T13:45:04.830Z,18.10
2022-08-27T13:47:47.677Z,30.08
2022-08-27T13:50:27.865Z,20.63
2022-08-27T13:53:30.493Z,20.27
2022-08-27T13:55:58.921Z,18.38
2022-08-27T13:58:30.471Z,21.60
2022-08-27T14:01:14.624Z,18.38
2022-08-27T14:04:06.553Z,19.65
2022-08-27T14:06:46.868Z,17.00
2022-08-27T14:09:20.161Z,17.48
2022-08-27T14:11:48.065Z,18.95
2022-08-27T14:14:18.834Z,20.77
2022-08-27T14:16:58.850Z,19.20
2022-08-27T14:19:36.085Z,16.27
2022-08-27T14:22:04.434Z,17.30
2022-08-27T14:24:31.541Z,18.33
2022-08-27T14:27:08.953Z,16.73
2022-08-27T14:29:36.267Z,18.50
2022-08-27T14:32:03.491Z,17.17
2022-08-27T14:34:30.535Z,15.95
2022-08-27T14:36:58.088Z,18.35
2022-08-27T14:39:26.712Z,18.98
2022-08-27T14:41:54.580Z,14.70
2022-08-27T14:44:22.176Z,19.77
2022-08-27T14:46:49.539Z,15.45
2022-08-27T14:49:39.432Z,15.77
2022-08-27T14:52:08.920Z,16.67
2022-08-27T14:54:36.038Z,20.25
2022-08-27T14:57:03.850Z,15.00
2022-08-27T14:59:31.889Z,15.32
2022-08-27T15:02:01.476Z,12.73
2022-08-27T15:04:29.460Z,12.68
2022-08-27T15:06:56.780Z,12.48
2022-08-27T15:09:23.789Z,13.07
2022-08-27T15:11:52.243Z,13.70
2022-08-27T15:14:31.679Z,13.57
2022-08-27T15:16:59.839Z,13.45
2022-08-27T15:19:29.163Z,15.63
2022-08-27T15:22:06.039Z,16.40
2022-08-27T15:24:43.447Z,17.63
2022-08-27T15:27:10.813Z,14.35
2022-08-27T15:29:38.018Z,17.85
2022-08-27T15:32:05.616Z,14.65
2022-08-27T15:34:32.755Z,13.60
2022-08-27T15:37:00.033Z,13.18
2022-08-27T15:39:27.030Z,15.32
2022-08-27T15:42:06.193Z,18.67
2022-08-27T15:44:33.949Z,17.00
2022-08-27T15:47:01.392Z,16.05
2022-08-27T15:49:28.392Z,16.58
2022-08-27T15:51:55.879Z,21.25
2022-08-27T15:54:27.181Z,15.30
2022-08-27T15:56:54.399Z,16.88
2022-08-27T15:59:21.340Z,16.73
2022-08-27T16:01:48.506Z,13.70
2022-08-27T16:04:16.078Z,16.17
2022-08-27T16:06:43.310Z,16.13
2022-08-27T16:09:10.494Z,16.52
2022-08-27T16:11:37.448Z,13.35
2022-08-27T16:14:04.457Z,17.90
2022-08-27T16:16:32.716Z,15.02
2022-08-27T16:19:04.845Z,15.25
2022-08-27T16:21:34.887Z,13.27
2022-08-27T16:24:02.560Z,14.77
2022-08-27T16:26:29.549Z,18.95
2022-08-27T16:28:56.540Z,15.52
2022-08-27T16:31:23.547Z,21.85
2022-08-27T16:33:50.676Z,13.07
2022-08-27T16:36:18.571Z,15.73
2022-08-27T16:38:45.580Z,17.95
2022-08-27T16:41:14.148Z,17.23
2022-08-27T16:43:41.683Z,11.93
2022-08-27T16:46:08.728Z,17.02
2022-08-27T16:49:00.316Z,15.18
2022-08-27T16:51:35.613Z,16.73
2022-08-27T16:54:05.453Z,14.55
2022-08-27T16:56:37.073Z,17.77
2022-08-27T16:59:06.320Z,20.45
2022-08-27T17:01:33.706Z,19.98
2022-08-27T17:04:09.856Z,19.95
2022-08-27T17:06:39.628Z,24.65
2022-08-27T17:09:07.198Z,30.80
2022-08-27T17:11:36.100Z,30.95
2022-08-27T17:14:04.612Z,26.55
2022-08-27T17:16:34.554Z,25.65
2022-08-27T17:19:04.496Z,22.75
2022-08-27T17:21:32.751Z,27.38
2022-08-27T17:24:02.618Z,27.23
2022-08-27T17:26:32.341Z,27.80
2022-08-27T17:29:00.004Z,27.50
2022-08-27T17:31:37.191Z,29.42
2022-08-27T17:34:07.064Z,31.80
2022-08-27T17:36:35.392Z,34.95
2022-08-27T17:39:03.116Z,31.63
2022-08-27T17:41:36.609Z,36.20
2022-08-27T17:44:11.347Z,39.28
2022-08-27T17:46:38.334Z,32.63
2022-08-27T17:49:05.336Z,30.15
2022-08-27T17:51:32.417Z,27.55
2022-08-27T17:54:01.206Z,27.75
2022-08-27T17:56:29.236Z,24.60
2022-08-27T17:58:56.571Z,23.45
2022-08-27T18:01:29.946Z,19.83
2022-08-27T18:03:58.788Z,21.75
2022-08-27T18:06:27.577Z,19.67
2022-08-27T18:08:54.580Z,26.42
2022-08-27T18:11:21.921Z,19.85
2022-08-27T18:13:55.376Z,25.30
2022-08-27T18:16:22.379Z,25.52
2022-08-27T18:18:49.635Z,27.92
2022-08-27T18:21:25.079Z,27.50
2022-08-27T18:23:53.914Z,26.98
2022-08-27T18:26:24.365Z,32.35
2022-08-27T18:28:51.475Z,27.70
2022-08-27T18:31:27.767Z,32.13
2022-08-27T18:33:55.600Z,33.50
2022-08-27T18:36:22.741Z,38.95
2022-08-27T18:38:50.550Z,37.85
2022-08-27T18:41:19.720Z,35.15
2022-08-27T18:43:47.569Z,34.20
2022-08-27T18:46:15.466Z,27.08
2022-08-27T18:48:42.660Z,27.17
2022-08-27T18:51:13.202Z,25.83
2022-08-27T18:53:41.513Z,26.05
2022-08-27T18:56:10.366Z,22.23
2022-08-27T18:58:39.075Z,22.83
2022-08-27T19:01:14.423Z,18.88
2022-08-27T19:03:48.908Z,21.83
2022-08-27T19:06:18.533Z,22.70
2022-08-27T19:08:45.523Z,17.67
2022-08-27T19:11:13.246Z,16.17
2022-08-27T19:13:41.915Z,15.25
2022-08-27T19:16:17.493Z,13.65
2022-08-27T19:18:45.249Z,26.67
2022-08-27T19:21:13.822Z,18.15
2022-08-27T19:23:40.996Z,15.30
2022-08-27T19:26:18.095Z,13.02
2022-08-27T19:28:45.605Z,14.82
2022-08-27T19:31:14.318Z,13.93
2022-08-27T19:33:42.771Z,12.15
2022-08-27T19:36:15.781Z,11.73
2022-08-27T19:38:44.715Z,15.80
2022-08-27T19:41:12.629Z,13.30
2022-08-27T19:43:39.676Z,16.15
2022-08-27T19:46:13.361Z,16.00
2022-08-27T19:48:40.422Z,15.27
2022-08-27T19:51:07.365Z,12.95
2022-08-27T19:53:35.484Z,12.48
2022-08-27T19:56:03.410Z,10.57
2022-08-27T19:58:30.429Z,12.80
2022-08-27T20:00:57.552Z,8.82
2022-08-27T20:03:24.589Z,13.38
2022-08-27T20:05:53.026Z,11.82
2022-08-27T20:08:20.393Z,13.90
2022-08-27T20:10:48.182Z,12.57
2022-08-27T20:13:15.274Z,16.45
2022-08-27T20:15:42.445Z,12.52
2022-08-27T20:18:13.170Z,14.82
2022-08-27T20:20:41.076Z,15.02
2022-08-27T20:23:08.675Z,12.75
2022-08-27T20:25:37.599Z,14.48
2022-08-27T20:28:28.293Z,13.30
2022-08-27T20:30:53.869Z,11.43
2022-08-27T20:33:20.790Z,11.85
2022-08-27T20:35:47.806Z,14.98
2022-08-27T20:38:14.750Z,12.23
2022-08-27T20:40:41.939Z,15.13
2022-08-27T20:43:08.930Z,17.67
2022-08-27T20:45:37.353Z,15.07
2022-08-27T20:48:04.860Z,18.48
2022-08-27T20:50:32.342Z,16.77
2022-08-27T20:52:59.346Z,14.00
2022-08-27T20:55:26.295Z,14.10
2022-08-27T20:58:11.591Z,15.48
2022-08-27T21:00:41.686Z,22.33
2022-08-27T21:03:11.127Z,12.73
2022-08-27T21:05:41.411Z,13.38
2022-08-27T21:08:08.702Z,17.92
2022-08-27T21:10:35.897Z,13.02
2022-08-27T21:13:05.119Z,12.85
2022-08-27T21:15:32.689Z,15.90
2022-08-27T21:17:59.679Z,12.98
2022-08-27T21:20:26.692Z,12.02
2022-08-27T21:22:56.040Z,18.23
2022-08-27T21:25:25.223Z,13.82
2022-08-27T21:27:53.111Z,15.63
2022-08-27T21:30:21.445Z,12.48
2022-08-27T21:32:48.864Z,13.00
2022-08-27T21:35:16.313Z,17.55
2022-08-27T21:37:43.851Z,15.18
2022-08-27T21:40:11.348Z,14.32
2022-08-27T21:42:38.784Z,11.32
2022-08-27T21:45:06.372Z,12.27
2022-08-27T21:47:33.422Z,12.95
2022-08-27T21:50:00.738Z,14.30
2022-08-27T21:52:27.683Z,12.45
2022-08-27T21:54:54.635Z,13.07
2022-08-27T21:57:21.559Z,11.98
2022-08-27T21:59:50.493Z,13.40
2022-08-27T22:02:39.260Z,13.68
2022-08-27T22:05:07.567Z,15.93
2022-08-27T22:07:34.588Z,13.07
2022-08-27T22:10:01.551Z,12.50
2022-08-27T22:12:28.515Z,13.80
2022-08-27T22:14:55.495Z,13.73
2022-08-27T22:17:22.435Z,12.75
2022-08-27T22:19:49.358Z,14.85
2022-08-27T22:22:16.326Z,12.07
2022-08-27T22:24:43.253Z,15.70
2022-08-27T22:27:10.286Z,14.40
2022-08-27T22:29:37.252Z,12.40
2022-08-27T22:32:07.484Z,11.18
2022-08-27T22:34:35.517Z,11.15
2022-08-27T22:37:03.970Z,12.57
2022-08-27T22:39:31.376Z,14.85
2022-08-27T22:41:58.521Z,14.85
2022-08-27T22:44:29.312Z,13.88
2022-08-27T22:46:57.142Z,17.02
2022-08-27T22:49:24.214Z,22.00
2022-08-27T22:51:51.138Z,17.77
2022-08-27T22:54:18.720Z,23.92
2022-08-27T22:56:45.663Z,17.02
2022-08-27T22:59:12.631Z,21.92
2022-08-27T23:01:39.647Z,16.05
2022-08-27T23:04:07.331Z,12.82
2022-08-27T23:06:34.734Z,17.52
2022-08-27T23:09:02.001Z,13.13
2022-08-27T23:11:32.098Z,19.35
2022-08-27T23:13:59.970Z,20.85
2022-08-27T23:16:28.665Z,21.15
2022-08-27T23:18:55.641Z,18.85
2022-08-27T23:21:22.747Z,18.25
2022-08-27T23:23:50.026Z,20.30
2022-08-27T23:26:35.467Z,12.88
2022-08-27T23:29:02.529Z,16.88
2022-08-27T23:31:29.573Z,14.90
2022-08-27T23:33:57.484Z,13.82
2022-08-27T23:36:25.045Z,17.17
2022-08-27T23:38:52.097Z,17.95
2022-08-27T23:41:19.175Z,14.02
2022-08-27T23:43:46.179Z,14.65
2022-08-27T23:46:13.771Z,14.18
2022-08-27T23:48:40.950Z,16.10
2022-08-27T23:51:09.065Z,12.48
2022-08-27T23:53:37.810Z,11.27
2022-08-27T23:56:05.502Z,16.40
2022-08-27T23:58:32.815Z,12.60
